Heimdal, North Dakota
Current Conditions -  °F | °C
As of 2:15 PM on Sunday 25 Jan 2015 (Local Time) from K5H4 Reporting Station
Overcast Overcast  
Wind Chill: 21°   Ceiling: 800
Heat Index: 27°   Visibility: 10mi
Dew Point: 25°   Wind: 5mph
Humidity: 93%   Direction: 240°WSW
Pressure: 29.94"   Gusts: NA
Location:  47.7822°N, 99.8441°W
Report Text: K5H4 252015Z AUTO 24004KT 10SM OVC008 M03/M04 A2994 RMK AO2
Loading
Personal Weather Stations






























Interactive Weather Map New forecast layout! Learn more

10-Day Weather Forecast

Advertisements
Track Severe Weather on mobile